createdAt,value
2022-12-22T00:01:50.425Z,-0.30
2022-12-22T00:04:36.431Z,-0.30
2022-12-22T00:07:22.255Z,-0.30
2022-12-22T00:10:08.085Z,-0.40
2022-12-22T00:12:54.135Z,-0.40
2022-12-22T00:15:41.412Z,-0.40
2022-12-22T00:18:34.304Z,-0.40
2022-12-22T00:21:20.624Z,-0.40
2022-12-22T00:24:06.432Z,-0.30
2022-12-22T00:26:54.751Z,-0.40
2022-12-22T00:29:40.946Z,-0.40
2022-12-22T00:32:33.296Z,-0.40
2022-12-22T00:35:20.700Z,-0.40
2022-12-22T00:38:06.589Z,-0.40
2022-12-22T00:40:52.599Z,-0.30
2022-12-22T00:43:38.296Z,-0.30
2022-12-22T00:46:24.025Z,-0.30
2022-12-22T00:49:09.809Z,-0.30
2022-12-22T00:51:55.677Z,-0.30
2022-12-22T00:54:42.145Z,-0.40
2022-12-22T00:57:38.480Z,-0.40
2022-12-22T01:00:28.791Z,-0.40
2022-12-22T01:03:14.764Z,-0.40
2022-12-22T01:06:00.741Z,-0.40
2022-12-22T01:08:47.259Z,-0.50
2022-12-22T01:11:33.238Z,-0.50
2022-12-22T01:14:19.077Z,-0.50
2022-12-22T01:17:04.593Z,-0.60
2022-12-22T01:19:50.253Z,-0.50
2022-12-22T01:22:39.438Z,-0.60
2022-12-22T01:25:31.861Z,-0.60
2022-12-22T01:28:17.729Z,-0.60
2022-12-22T01:31:04.636Z,-0.60
2022-12-22T01:33:50.019Z,-0.70
2022-12-22T01:36:36.587Z,-0.70
2022-12-22T01:39:23.366Z,-0.70
2022-12-22T01:42:09.293Z,-0.70
2022-12-22T01:44:55.119Z,-0.70
2022-12-22T01:47:52.566Z,-0.70
2022-12-22T01:50:46.219Z,-0.60
2022-12-22T01:53:37.899Z,-0.60
2022-12-22T01:56:25.055Z,-0.60
2022-12-22T01:59:14.496Z,-0.50
2022-12-22T02:02:02.224Z,-0.50
2022-12-22T02:05:02.990Z,-0.50
2022-12-22T02:08:22.751Z,-0.50
2022-12-22T02:11:28.682Z,-0.40
2022-12-22T02:14:39.058Z,-0.50
2022-12-22T02:17:50.867Z,-0.50
2022-12-22T02:20:42.577Z,-0.40
2022-12-22T02:23:44.007Z,-0.40
2022-12-22T02:26:52.182Z,-0.40
2022-12-22T02:29:48.654Z,-0.40
2022-12-22T02:32:35.133Z,-0.40
2022-12-22T02:35:20.846Z,-0.40
2022-12-22T02:38:32.155Z,-0.40
2022-12-22T02:41:31.248Z,-0.40
2022-12-22T02:44:19.663Z,-0.40
2022-12-22T02:47:26.267Z,-0.40
2022-12-22T02:50:16.835Z,-0.40
2022-12-22T02:53:04.352Z,-0.40
2022-12-22T02:55:51.029Z,-0.40
2022-12-22T02:58:37.850Z,-0.40
2022-12-22T03:01:24.792Z,-0.40
2022-12-22T03:04:11.142Z,-0.40
2022-12-22T03:06:56.990Z,-0.40
2022-12-22T03:09:42.560Z,-0.40
2022-12-22T03:12:28.111Z,-0.40
2022-12-22T03:15:14.008Z,-0.40
2022-12-22T03:17:59.812Z,-0.50
2022-12-22T03:20:45.684Z,-0.40
2022-12-22T03:23:31.524Z,-0.40
2022-12-22T03:25:58.702Z,-0.50
2022-12-22T03:28:27.865Z,-0.50
2022-12-22T03:31:08.484Z,-0.50
2022-12-22T03:33:35.686Z,-0.50
2022-12-22T03:36:03.571Z,-0.40
2022-12-22T03:38:30.972Z,-0.50
2022-12-22T03:40:58.240Z,-0.50
2022-12-22T03:43:44.079Z,-0.40
2022-12-22T03:46:31.368Z,-0.50
2022-12-22T03:49:19.647Z,-0.50
2022-12-22T03:51:49.306Z,-0.50
2022-12-22T03:54:26.936Z,-0.50
2022-12-22T03:56:54.751Z,-0.50
2022-12-22T03:59:22.324Z,-0.50
2022-12-22T04:01:52.951Z,-0.50
2022-12-22T04:04:22.979Z,-0.50
2022-12-22T04:06:51.099Z,-0.50
2022-12-22T04:09:18.278Z,-0.50
2022-12-22T04:12:04.124Z,-0.50
2022-12-22T04:14:34.364Z,-0.50
2022-12-22T04:17:06.819Z,-0.50
2022-12-22T04:19:34.162Z,-0.50
2022-12-22T04:22:01.550Z,-0.60
2022-12-22T04:24:28.813Z,-0.60
2022-12-22T04:26:56.193Z,-0.50
2022-12-22T04:29:23.488Z,-0.50
2022-12-22T04:31:51.338Z,-0.60
2022-12-22T04:34:19.594Z,-0.60
2022-12-22T04:36:46.852Z,-0.60
2022-12-22T04:39:14.196Z,-0.60
2022-12-22T04:41:41.592Z,-0.60
2022-12-22T04:44:08.733Z,-0.60
2022-12-22T04:46:35.960Z,-0.60
2022-12-22T04:49:03.116Z,-0.60
2022-12-22T04:51:30.421Z,-0.60
2022-12-22T04:53:57.647Z,-0.60
2022-12-22T04:56:24.989Z,-0.70
2022-12-22T04:58:52.274Z,-0.70
2022-12-22T05:01:20.099Z,-0.70
2022-12-22T05:03:47.791Z,-0.60
2022-12-22T05:06:15.694Z,-0.60
2022-12-22T05:08:43.315Z,-0.60
2022-12-22T05:11:11.222Z,-0.60
2022-12-22T05:13:38.827Z,-0.60
2022-12-22T05:16:14.376Z,-0.60
2022-12-22T05:18:43.727Z,-0.70
2022-12-22T05:21:22.494Z,-0.70
2022-12-22T05:23:50.587Z,-0.60
2022-12-22T05:26:19.677Z,-0.60
2022-12-22T05:28:48.421Z,-0.60
2022-12-22T05:31:18.622Z,-0.50
2022-12-22T05:33:47.050Z,-0.70
2022-12-22T05:36:14.701Z,-0.60
2022-12-22T05:38:42.441Z,-0.60
2022-12-22T05:41:09.648Z,-0.60
2022-12-22T05:43:37.353Z,-0.70
2022-12-22T05:46:06.939Z,-0.70
2022-12-22T05:48:38.688Z,-0.70
2022-12-22T05:51:08.565Z,-0.70
2022-12-22T05:53:36.799Z,-0.70
2022-12-22T05:56:04.627Z,-0.60
2022-12-22T05:58:31.879Z,-0.60
2022-12-22T06:01:00.684Z,-0.60
2022-12-22T06:03:29.477Z,-0.70
2022-12-22T06:05:58.349Z,-0.60
2022-12-22T06:08:26.762Z,-0.60
2022-12-22T06:10:56.161Z,-0.70
2022-12-22T06:13:24.345Z,-0.70
2022-12-22T06:15:52.254Z,-0.70
2022-12-22T06:18:19.435Z,-0.70
2022-12-22T06:20:47.761Z,-0.70
2022-12-22T06:23:15.788Z,-0.70
2022-12-22T06:25:43.073Z,-0.70
2022-12-22T06:28:10.330Z,-0.70
2022-12-22T06:30:38.673Z,-0.70
2022-12-22T06:33:05.870Z,-0.70
2022-12-22T06:35:33.137Z,-0.70
2022-12-22T06:38:00.498Z,-0.70
2022-12-22T06:40:27.693Z,-0.70
2022-12-22T06:43:10.436Z,-0.70
2022-12-22T06:45:42.944Z,-0.70
2022-12-22T06:48:12.566Z,-0.70
2022-12-22T06:50:40.628Z,-0.70
2022-12-22T06:53:08.194Z,-0.70
2022-12-22T06:55:36.811Z,-0.70
2022-12-22T06:58:05.129Z,-0.60
2022-12-22T07:00:32.548Z,-0.70
2022-12-22T07:02:59.954Z,-0.60
2022-12-22T07:05:27.500Z,-0.60
2022-12-22T07:07:54.768Z,-0.60
2022-12-22T07:10:41.925Z,-0.60
2022-12-22T07:13:19.765Z,-0.60
2022-12-22T07:15:53.727Z,-0.60
2022-12-22T07:18:27.656Z,-0.60
2022-12-22T07:20:55.445Z,-0.60
2022-12-22T07:23:22.737Z,-0.60
2022-12-22T07:25:50.007Z,-0.60
2022-12-22T07:28:20.887Z,-0.50
2022-12-22T07:30:52.388Z,-0.60
2022-12-22T07:33:20.069Z,-0.60
2022-12-22T07:35:47.282Z,-0.60
2022-12-22T07:38:14.705Z,-0.60
2022-12-22T07:40:43.442Z,-0.50
2022-12-22T07:43:11.612Z,-0.50
2022-12-22T07:45:38.802Z,-0.50
2022-12-22T07:48:26.330Z,-0.50
2022-12-22T07:50:55.488Z,-0.50
2022-12-22T07:53:22.651Z,-0.50
2022-12-22T07:55:49.833Z,-0.40
2022-12-22T07:58:17.120Z,-0.40
2022-12-22T08:00:44.321Z,-0.40
2022-12-22T08:03:11.578Z,-0.40
2022-12-22T08:05:39.291Z,-0.40
2022-12-22T08:08:06.429Z,-0.40
2022-12-22T08:10:33.910Z,-0.30
2022-12-22T08:13:00.974Z,-0.40
2022-12-22T08:15:28.214Z,-0.50
2022-12-22T08:17:56.678Z,-0.40
2022-12-22T08:20:23.864Z,-0.40
2022-12-22T08:22:50.993Z,-0.40
2022-12-22T08:25:18.547Z,-0.40
2022-12-22T08:27:51.252Z,-0.40
2022-12-22T08:30:18.581Z,-0.30
2022-12-22T08:32:48.871Z,-0.30
2022-12-22T08:35:16.162Z,-0.30
2022-12-22T08:37:46.161Z,-0.30
2022-12-22T08:40:18.176Z,-0.20
2022-12-22T08:42:46.963Z,-0.20
2022-12-22T08:45:14.090Z,-0.10
2022-12-22T08:47:41.419Z,0.00
2022-12-22T08:50:09.199Z,-0.10
2022-12-22T08:52:36.542Z,-0.10
2022-12-22T08:55:03.979Z,-0.10
2022-12-22T08:57:31.177Z,-0.20
2022-12-22T08:59:58.276Z,-0.20
2022-12-22T09:02:25.602Z,-0.20
2022-12-22T09:04:52.807Z,-0.20
2022-12-22T09:07:20.096Z,-0.20
2022-12-22T09:09:47.217Z,-0.20
2022-12-22T09:12:14.313Z,-0.10
2022-12-22T09:14:41.688Z,-0.10
2022-12-22T09:17:08.960Z,-0.10
2022-12-22T09:19:36.591Z,-0.20
2022-12-22T09:22:04.110Z,-0.10
2022-12-22T09:24:31.380Z,-0.10
2022-12-22T09:26:58.633Z,-0.10
2022-12-22T09:29:26.126Z,-0.10
2022-12-22T09:31:53.473Z,-0.10
2022-12-22T09:34:21.031Z,-0.10
2022-12-22T09:36:48.319Z,-0.10
2022-12-22T09:39:16.412Z,-0.10
2022-12-22T09:41:51.355Z,-0.10
2022-12-22T09:44:18.579Z,-0.10
2022-12-22T09:46:46.098Z,-0.10
2022-12-22T09:49:17.350Z,-0.10
2022-12-22T09:51:49.411Z,0.00
2022-12-22T09:54:16.812Z,0.00
2022-12-22T09:56:44.189Z,-0.10
2022-12-22T09:59:16.687Z,-0.10
2022-12-22T10:01:56.771Z,-0.10
2022-12-22T10:04:43.010Z,0.00
2022-12-22T10:07:25.016Z,0.00
2022-12-22T10:09:52.447Z,0.00
2022-12-22T10:12:24.193Z,0.00
2022-12-22T10:14:53.379Z,-0.10
2022-12-22T10:17:32.562Z,0.00
2022-12-22T10:20:27.014Z,0.00
2022-12-22T10:23:02.568Z,0.10
2022-12-22T10:28:33.609Z,0.20
2022-12-22T10:31:21.203Z,0.30
2022-12-22T10:33:57.558Z,0.20
2022-12-22T10:36:31.489Z,0.20
2022-12-22T10:39:08.690Z,0.20
2022-12-22T10:41:47.366Z,0.30
2022-12-22T10:44:17.254Z,0.20
2022-12-22T10:46:53.473Z,0.30
2022-12-22T10:49:26.938Z,0.30
2022-12-22T10:51:57.303Z,0.40
2022-12-22T10:54:37.988Z,0.50
2022-12-22T10:57:14.191Z,0.40
2022-12-22T11:00:02.510Z,0.30
2022-12-22T11:02:39.120Z,0.30
2022-12-22T11:05:11.519Z,0.30
2022-12-22T11:07:42.191Z,0.30
2022-12-22T11:10:15.459Z,0.30
2022-12-22T11:13:00.451Z,0.40
2022-12-22T11:15:40.721Z,0.40
2022-12-22T11:18:08.055Z,0.40
2022-12-22T11:21:20.355Z,0.40
2022-12-22T11:24:04.970Z,0.40
2022-12-22T11:26:48.576Z,0.40
2022-12-22T11:29:27.789Z,0.50
2022-12-22T11:32:33.386Z,0.40
2022-12-22T11:35:28.597Z,0.30
2022-12-22T11:38:14.313Z,0.40
2022-12-22T11:41:10.940Z,0.40
2022-12-22T11:44:07.470Z,0.40
2022-12-22T11:46:54.693Z,0.30
2022-12-22T11:49:40.971Z,0.40
2022-12-22T11:52:19.923Z,0.40
2022-12-22T11:55:05.418Z,0.40
2022-12-22T11:57:56.655Z,0.50
2022-12-22T12:00:32.571Z,0.50
2022-12-22T12:03:19.451Z,0.50
2022-12-22T12:06:23.838Z,0.40
2022-12-22T12:09:14.175Z,0.50
2022-12-22T12:11:52.610Z,0.40
2022-12-22T12:14:37.822Z,0.50
2022-12-22T12:17:26.953Z,0.50
2022-12-22T12:20:18.821Z,0.50
2022-12-22T12:23:09.054Z,0.50
2022-12-22T12:26:10.276Z,0.60
2022-12-22T12:28:57.660Z,0.50
2022-12-22T12:31:32.650Z,0.50
2022-12-22T12:34:02.292Z,0.50
2022-12-22T12:36:44.960Z,0.50
2022-12-22T12:39:18.869Z,0.50
2022-12-22T12:42:00.997Z,0.60
2022-12-22T12:44:32.841Z,0.60
2022-12-22T12:47:29.541Z,0.60
2022-12-22T12:50:16.897Z,0.50
2022-12-22T12:52:48.744Z,0.50
2022-12-22T12:55:54.977Z,0.50
2022-12-22T12:58:39.956Z,0.60
2022-12-22T13:01:11.995Z,0.60
2022-12-22T13:06:51.319Z,0.60
2022-12-22T13:09:50.608Z,0.60
2022-12-22T13:12:51.252Z,0.60
2022-12-22T13:15:28.352Z,0.60
2022-12-22T13:17:55.770Z,0.60
2022-12-22T13:20:34.156Z,0.60
2022-12-22T13:23:04.884Z,0.70
2022-12-22T13:25:53.309Z,0.60
2022-12-22T13:28:23.850Z,0.70
2022-12-22T13:30:58.760Z,0.60
2022-12-22T13:33:30.450Z,0.70
2022-12-22T13:35:59.583Z,0.70
2022-12-22T13:38:31.592Z,0.70
2022-12-22T13:41:26.511Z,0.70
2022-12-22T13:44:04.668Z,0.70
2022-12-22T13:46:38.388Z,0.80
2022-12-22T13:49:10.244Z,0.80
2022-12-22T13:51:38.860Z,0.80
2022-12-22T13:54:12.597Z,0.90
2022-12-22T13:56:46.214Z,0.90
2022-12-22T13:59:35.542Z,1.00
2022-12-22T14:02:15.177Z,0.90
2022-12-22T14:05:04.494Z,0.90
2022-12-22T14:07:31.959Z,0.90
2022-12-22T14:09:59.266Z,1.00
2022-12-22T14:12:34.729Z,0.90
2022-12-22T14:15:03.321Z,0.90
2022-12-22T14:17:35.086Z,0.80
2022-12-22T14:20:27.770Z,0.80
2022-12-22T14:23:02.910Z,0.80
2022-12-22T14:25:43.279Z,0.80
2022-12-22T14:28:22.535Z,0.80
2022-12-22T14:30:56.882Z,0.70
2022-12-22T14:33:24.035Z,0.70
2022-12-22T14:35:51.382Z,0.70
2022-12-22T14:38:21.708Z,0.70
2022-12-22T14:40:54.563Z,0.70
2022-12-22T14:43:28.445Z,0.70
2022-12-22T14:46:08.429Z,0.70
2022-12-22T14:48:40.644Z,0.70
2022-12-22T14:51:08.084Z,0.60
2022-12-22T14:53:46.842Z,0.60
2022-12-22T14:56:17.726Z,0.50
2022-12-22T14:58:46.692Z,0.40
2022-12-22T15:01:16.762Z,0.40
2022-12-22T15:03:44.815Z,0.40
2022-12-22T15:06:37.053Z,0.50
2022-12-22T15:09:09.194Z,0.50
2022-12-22T15:11:39.422Z,0.50
2022-12-22T15:14:15.728Z,0.50
2022-12-22T15:16:44.082Z,0.50
2022-12-22T15:19:23.683Z,0.60
2022-12-22T15:21:51.946Z,0.60
2022-12-22T15:24:19.838Z,0.60
2022-12-22T15:26:47.959Z,0.60
2022-12-22T15:29:15.185Z,0.60
2022-12-22T15:31:43.876Z,0.60
2022-12-22T15:34:27.299Z,0.60
2022-12-22T15:36:55.059Z,0.60
2022-12-22T15:39:24.819Z,0.60
2022-12-22T15:41:52.169Z,0.60
2022-12-22T15:44:19.372Z,0.60
2022-12-22T15:46:55.454Z,0.60
2022-12-22T15:49:26.608Z,0.60
2022-12-22T15:52:00.816Z,0.60
2022-12-22T15:54:29.872Z,0.60
2022-12-22T15:56:57.295Z,0.70
2022-12-22T15:59:27.571Z,0.70
2022-12-22T16:02:01.372Z,0.70
2022-12-22T16:04:30.648Z,0.70
2022-12-22T16:06:59.755Z,0.70
2022-12-22T16:09:33.008Z,0.80
2022-12-22T16:12:00.292Z,0.80
2022-12-22T16:14:28.602Z,0.70
2022-12-22T16:16:57.511Z,0.70
2022-12-22T16:19:24.698Z,0.70
2022-12-22T16:21:53.670Z,0.70
2022-12-22T16:24:28.405Z,0.60
2022-12-22T16:26:58.227Z,0.70
2022-12-22T16:29:26.645Z,0.60
2022-12-22T16:31:54.007Z,0.50
2022-12-22T16:34:21.379Z,0.50
2022-12-22T16:36:48.560Z,0.40
2022-12-22T16:39:15.797Z,0.40
2022-12-22T16:41:44.885Z,0.50
2022-12-22T16:47:06.319Z,0.50
2022-12-22T16:49:33.538Z,0.50
2022-12-22T16:52:00.769Z,0.40
2022-12-22T16:54:28.921Z,0.50
2022-12-22T16:56:56.167Z,0.50
2022-12-22T16:59:23.489Z,0.40
2022-12-22T17:01:55.095Z,0.40
2022-12-22T17:04:28.652Z,0.30
2022-12-22T17:06:58.510Z,0.40
2022-12-22T17:09:47.809Z,0.30
2022-12-22T17:12:21.763Z,0.40
2022-12-22T17:14:50.170Z,0.40
2022-12-22T17:17:28.696Z,0.40
2022-12-22T17:19:58.568Z,0.30
2022-12-22T17:22:33.904Z,0.20
2022-12-22T17:25:05.230Z,0.20
2022-12-22T17:27:34.277Z,0.30
2022-12-22T17:30:03.931Z,0.20
2022-12-22T17:32:32.188Z,0.20
2022-12-22T17:34:59.299Z,0.10
2022-12-22T17:37:26.742Z,0.10
2022-12-22T17:40:01.272Z,0.00
2022-12-22T17:42:28.794Z,0.00
2022-12-22T17:44:56.106Z,0.00
2022-12-22T17:47:31.179Z,0.10
2022-12-22T17:50:00.917Z,0.20
2022-12-22T17:52:28.309Z,0.20
2022-12-22T17:54:55.859Z,0.20
2022-12-22T17:57:25.715Z,0.20
2022-12-22T17:59:52.957Z,0.30
2022-12-22T18:02:22.543Z,0.30
2022-12-22T18:04:50.581Z,0.30
2022-12-22T18:07:21.888Z,0.40
2022-12-22T18:09:51.531Z,0.40
2022-12-22T18:12:22.030Z,0.40
2022-12-22T18:14:51.824Z,0.50
2022-12-22T18:17:33.376Z,0.40
2022-12-22T18:20:03.126Z,0.50
2022-12-22T18:22:30.643Z,0.50
2022-12-22T18:24:58.327Z,0.50
2022-12-22T18:27:25.454Z,0.60
2022-12-22T18:29:52.749Z,0.60
2022-12-22T18:32:26.641Z,0.60
2022-12-22T18:34:55.160Z,0.50
2022-12-22T18:37:22.402Z,0.60
2022-12-22T18:39:49.717Z,0.60
2022-12-22T18:42:21.623Z,0.60
2022-12-22T18:44:50.215Z,0.60
2022-12-22T18:47:17.719Z,0.60
2022-12-22T18:49:45.557Z,0.70
2022-12-22T18:52:21.715Z,0.70
2022-12-22T18:54:51.028Z,0.70
2022-12-22T18:57:20.211Z,0.80
2022-12-22T18:59:48.902Z,0.80
2022-12-22T19:02:29.211Z,0.80
2022-12-22T19:04:57.495Z,0.80
2022-12-22T19:07:26.890Z,0.80
2022-12-22T19:09:54.049Z,0.80
2022-12-22T19:12:23.508Z,0.90
2022-12-22T19:14:54.036Z,0.90
2022-12-22T19:17:26.487Z,0.90
2022-12-22T19:19:53.679Z,0.90
2022-12-22T19:22:20.830Z,0.90
2022-12-22T19:24:49.395Z,0.80
2022-12-22T19:27:26.114Z,0.90
2022-12-22T19:30:04.034Z,0.90
2022-12-22T19:32:41.441Z,0.90
2022-12-22T19:35:20.747Z,1.00
2022-12-22T19:37:49.792Z,1.00
2022-12-22T19:40:19.136Z,1.00
2022-12-22T19:42:50.409Z,1.00
2022-12-22T19:45:22.124Z,1.00
2022-12-22T19:47:55.763Z,1.10
2022-12-22T19:50:28.508Z,1.10
2022-12-22T19:52:58.988Z,1.00
2022-12-22T19:55:29.730Z,1.00
2022-12-22T19:57:57.085Z,1.00
2022-12-22T20:00:27.267Z,1.00
2022-12-22T20:02:58.144Z,1.10
2022-12-22T20:05:25.336Z,1.10
2022-12-22T20:07:55.017Z,1.20
2022-12-22T20:10:23.921Z,1.20
2022-12-22T20:12:54.331Z,1.20
2022-12-22T20:15:25.045Z,1.20
2022-12-22T20:17:54.155Z,1.30
2022-12-22T20:20:34.882Z,1.30
2022-12-22T20:23:13.320Z,1.40
2022-12-22T20:25:43.873Z,1.50
2022-12-22T20:28:26.117Z,1.40
2022-12-22T20:30:55.300Z,1.40
2022-12-22T20:33:24.805Z,1.50
2022-12-22T20:35:53.582Z,1.50
2022-12-22T20:38:27.701Z,1.50
2022-12-22T20:40:55.004Z,1.60
2022-12-22T20:43:25.182Z,1.60
2022-12-22T20:45:57.750Z,1.70
2022-12-22T20:48:45.095Z,1.80
2022-12-22T20:51:16.410Z,1.70
2022-12-22T20:53:44.804Z,1.90
2022-12-22T20:56:37.941Z,1.80
2022-12-22T20:59:21.055Z,1.70
2022-12-22T21:01:51.137Z,1.80
2022-12-22T21:04:19.231Z,1.80
2022-12-22T21:06:53.735Z,1.80
2022-12-22T21:09:22.130Z,1.80
2022-12-22T21:11:50.077Z,1.80
2022-12-22T21:14:17.965Z,1.80
2022-12-22T21:16:45.498Z,1.90
2022-12-22T21:19:18.508Z,1.90
2022-12-22T21:21:46.553Z,1.90
2022-12-22T21:24:13.952Z,1.80
2022-12-22T21:26:43.852Z,1.90
2022-12-22T21:29:21.671Z,1.90
2022-12-22T21:31:49.016Z,1.90
2022-12-22T21:34:16.241Z,1.80
2022-12-22T21:36:46.126Z,1.90
2022-12-22T21:39:31.822Z,2.00
2022-12-22T21:42:01.819Z,1.90
2022-12-22T21:44:32.042Z,2.00
2022-12-22T21:46:59.961Z,1.90
2022-12-22T21:49:31.258Z,1.90
2022-12-22T21:51:58.573Z,2.20
2022-12-22T21:54:27.171Z,2.10
2022-12-22T21:56:55.632Z,2.30
2022-12-22T21:59:23.533Z,2.20
2022-12-22T22:01:56.004Z,2.30
2022-12-22T22:04:25.362Z,2.30
2022-12-22T22:06:52.971Z,2.40
2022-12-22T22:09:20.199Z,2.50
2022-12-22T22:12:06.172Z,2.40
2022-12-22T22:14:33.412Z,2.30
2022-12-22T22:17:00.483Z,2.40
2022-12-22T22:19:27.713Z,2.70
2022-12-22T22:21:54.939Z,2.50
2022-12-22T22:24:22.236Z,2.60
2022-12-22T22:26:51.925Z,2.70
2022-12-22T22:29:19.293Z,2.50
2022-12-22T22:31:46.623Z,2.40
2022-12-22T22:34:14.801Z,2.20
2022-12-22T22:36:42.302Z,2.10
2022-12-22T22:39:10.583Z,2.20
2022-12-22T22:41:43.001Z,2.10
2022-12-22T22:44:11.896Z,2.10
2022-12-22T22:46:39.571Z,2.30
2022-12-22T22:49:07.893Z,2.30
2022-12-22T22:51:35.120Z,2.40
2022-12-22T22:54:02.249Z,2.60
2022-12-22T22:56:29.474Z,2.70
2022-12-22T22:58:58.410Z,2.90
2022-12-22T23:01:25.859Z,2.90
2022-12-22T23:03:53.375Z,3.00
2022-12-22T23:06:21.715Z,2.90
2022-12-22T23:08:49.741Z,2.80
2022-12-22T23:11:17.756Z,2.60
2022-12-22T23:13:45.684Z,2.50
2022-12-22T23:16:12.962Z,2.50
2022-12-22T23:18:41.317Z,2.60
2022-12-22T23:21:09.794Z,2.50
2022-12-22T23:23:37.727Z,2.50
2022-12-22T23:26:06.216Z,2.40
2022-12-22T23:28:34.280Z,2.40
2022-12-22T23:31:01.710Z,2.20
2022-12-22T23:33:32.389Z,2.10
2022-12-22T23:35:59.686Z,1.90
2022-12-22T23:38:26.972Z,2.00
2022-12-22T23:41:03.398Z,2.00
2022-12-22T23:43:31.088Z,1.90
2022-12-22T23:45:59.633Z,1.90
2022-12-22T23:48:26.903Z,1.80
2022-12-22T23:50:54.321Z,1.80
2022-12-22T23:53:21.617Z,1.80
2022-12-22T23:55:49.611Z,2.00
2022-12-22T23:58:17.602Z,1.90
